sensor_id;sensor_type;location;lat;lon;timestamp;P1;durP1;ratioP1;P2;durP2;ratioP2
71715;SDS011;59568;52.128;5.434;2024-01-16T00:01:41;3.78;;;0.60;;
71715;SDS011;59568;52.128;5.434;2024-01-16T00:04:11;2.73;;;0.20;;
71715;SDS011;59568;52.128;5.434;2024-01-16T00:06:39;0.50;;;0.30;;
71715;SDS011;59568;52.128;5.434;2024-01-16T00:09:09;0.93;;;0.40;;
71715;SDS011;59568;52.128;5.434;2024-01-16T00:11:39;5.32;;;0.70;;
71715;SDS011;59568;52.128;5.434;2024-01-16T00:14:09;1.95;;;0.30;;
71715;SDS011;59568;52.128;5.434;2024-01-16T00:16:46;3.07;;;0.40;;
71715;SDS011;59568;52.128;5.434;2024-01-16T00:19:14;5.63;;;0.82;;
71715;SDS011;59568;52.128;5.434;2024-01-16T00:21:42;5.80;;;0.70;;
71715;SDS011;59568;52.128;5.434;2024-01-16T00:24:09;1.85;;;0.30;;
71715;SDS011;59568;52.128;5.434;2024-01-16T00:26:36;0.30;;;0.30;;
71715;SDS011;59568;52.128;5.434;2024-01-16T00:29:03;4.57;;;0.60;;
71715;SDS011;59568;52.128;5.434;2024-01-16T00:31:30;0.63;;;0.50;;
71715;SDS011;59568;52.128;5.434;2024-01-16T00:33:57;1.33;;;0.50;;
71715;SDS011;59568;52.128;5.434;2024-01-16T00:36:24;6.72;;;0.47;;
71715;SDS011;59568;52.128;5.434;2024-01-16T00:38:51;2.15;;;0.40;;
71715;SDS011;59568;52.128;5.434;2024-01-16T00:41:18;0.80;;;0.30;;
71715;SDS011;59568;52.128;5.434;2024-01-16T00:43:45;3.63;;;0.57;;
71715;SDS011;59568;52.128;5.434;2024-01-16T00:46:12;1.90;;;0.30;;
71715;SDS011;59568;52.128;5.434;2024-01-16T00:48:39;4.75;;;0.50;;
71715;SDS011;59568;52.128;5.434;2024-01-16T00:51:06;5.50;;;0.50;;
71715;SDS011;59568;52.128;5.434;2024-01-16T00:53:33;3.70;;;0.63;;
71715;SDS011;59568;52.128;5.434;2024-01-16T00:55:59;2.97;;;0.30;;
71715;SDS011;59568;52.128;5.434;2024-01-16T00:58:27;2.75;;;0.82;;
71715;SDS011;59568;52.128;5.434;2024-01-16T01:00:53;1.10;;;0.30;;
71715;SDS011;59568;52.128;5.434;2024-01-16T01:03:21;1.38;;;0.63;;
71715;SDS011;59568;52.128;5.434;2024-01-16T01:05:48;2.00;;;0.50;;
71715;SDS011;59568;52.128;5.434;2024-01-16T01:08:15;1.05;;;0.40;;
71715;SDS011;59568;52.128;5.434;2024-01-16T01:10:41;1.42;;;0.68;;
71715;SDS011;59568;52.128;5.434;2024-01-16T01:13:08;0.50;;;0.38;;
71715;SDS011;59568;52.128;5.434;2024-01-16T01:15:35;4.50;;;0.30;;
71715;SDS011;59568;52.128;5.434;2024-01-16T01:18:02;1.93;;;0.83;;
71715;SDS011;59568;52.128;5.434;2024-01-16T01:20:31;2.45;;;0.25;;
71715;SDS011;59568;52.128;5.434;2024-01-16T01:22:58;1.30;;;0.52;;
71715;SDS011;59568;52.128;5.434;2024-01-16T01:25:26;1.30;;;0.50;;
71715;SDS011;59568;52.128;5.434;2024-01-16T01:27:53;2.20;;;0.60;;
71715;SDS011;59568;52.128;5.434;2024-01-16T01:30:20;6.10;;;0.60;;
71715;SDS011;59568;52.128;5.434;2024-01-16T01:32:47;4.97;;;0.85;;
71715;SDS011;59568;52.128;5.434;2024-01-16T01:35:14;0.88;;;0.50;;
71715;SDS011;59568;52.128;5.434;2024-01-16T01:37:43;1.13;;;0.32;;
71715;SDS011;59568;52.128;5.434;2024-01-16T01:40:10;0.77;;;0.50;;
71715;SDS011;59568;52.128;5.434;2024-01-16T01:42:40;0.87;;;0.20;;
71715;SDS011;59568;52.128;5.434;2024-01-16T01:45:10;2.20;;;0.63;;
71715;SDS011;59568;52.128;5.434;2024-01-16T01:47:39;2.95;;;0.80;;
71715;SDS011;59568;52.128;5.434;2024-01-16T01:50:06;1.50;;;0.55;;
71715;SDS011;59568;52.128;5.434;2024-01-16T01:52:35;1.80;;;0.50;;
71715;SDS011;59568;52.128;5.434;2024-01-16T01:55:05;0.97;;;0.33;;
71715;SDS011;59568;52.128;5.434;2024-01-16T01:57:37;1.88;;;0.30;;
71715;SDS011;59568;52.128;5.434;2024-01-16T02:00:04;1.98;;;0.73;;
71715;SDS011;59568;52.128;5.434;2024-01-16T02:02:32;2.03;;;0.30;;
71715;SDS011;59568;52.128;5.434;2024-01-16T02:05:00;2.10;;;0.43;;
71715;SDS011;59568;52.128;5.434;2024-01-16T02:07:27;0.10;;;0.10;;
71715;SDS011;59568;52.128;5.434;2024-01-16T02:09:55;0.43;;;0.20;;
71715;SDS011;59568;52.128;5.434;2024-01-16T02:12:22;1.08;;;0.45;;
71715;SDS011;59568;52.128;5.434;2024-01-16T02:14:51;0.88;;;0.30;;
71715;SDS011;59568;52.128;5.434;2024-01-16T02:17:18;0.75;;;0.20;;
71715;SDS011;59568;52.128;5.434;2024-01-16T02:19:45;0.33;;;0.30;;
71715;SDS011;59568;52.128;5.434;2024-01-16T02:22:13;1.05;;;0.30;;
71715;SDS011;59568;52.128;5.434;2024-01-16T02:24:47;2.85;;;0.50;;
71715;SDS011;59568;52.128;5.434;2024-01-16T02:27:14;0.52;;;0.25;;
71715;SDS011;59568;52.128;5.434;2024-01-16T02:29:41;1.25;;;0.35;;
71715;SDS011;59568;52.128;5.434;2024-01-16T02:32:12;1.47;;;0.30;;
71715;SDS011;59568;52.128;5.434;2024-01-16T02:34:40;1.27;;;0.50;;
71715;SDS011;59568;52.128;5.434;2024-01-16T02:37:08;1.10;;;0.50;;
71715;SDS011;59568;52.128;5.434;2024-01-16T02:39:35;0.73;;;0.30;;
71715;SDS011;59568;52.128;5.434;2024-01-16T02:42:02;2.20;;;0.28;;
71715;SDS011;59568;52.128;5.434;2024-01-16T02:44:29;0.40;;;0.20;;
71715;SDS011;59568;52.128;5.434;2024-01-16T02:46:56;0.43;;;0.40;;
71715;SDS011;59568;52.128;5.434;2024-01-16T02:49:22;1.10;;;0.38;;
71715;SDS011;59568;52.128;5.434;2024-01-16T02:51:52;0.70;;;0.20;;
71715;SDS011;59568;52.128;5.434;2024-01-16T02:54:19;1.02;;;0.32;;
71715;SDS011;59568;52.128;5.434;2024-01-16T02:56:46;1.67;;;0.40;;
71715;SDS011;59568;52.128;5.434;2024-01-16T02:59:13;2.35;;;0.40;;
71715;SDS011;59568;52.128;5.434;2024-01-16T03:01:41;1.45;;;0.30;;
71715;SDS011;59568;52.128;5.434;2024-01-16T03:04:07;1.00;;;0.40;;
71715;SDS011;59568;52.128;5.434;2024-01-16T03:06:35;0.50;;;0.30;;
71715;SDS011;59568;52.128;5.434;2024-01-16T03:09:02;0.30;;;0.20;;
71715;SDS011;59568;52.128;5.434;2024-01-16T03:11:29;0.85;;;0.30;;
71715;SDS011;59568;52.128;5.434;2024-01-16T03:13:59;4.20;;;0.40;;
71715;SDS011;59568;52.128;5.434;2024-01-16T03:16:26;0.47;;;0.30;;
71715;SDS011;59568;52.128;5.434;2024-01-16T03:18:54;0.60;;;0.38;;
71715;SDS011;59568;52.128;5.434;2024-01-16T03:21:21;0.30;;;0.20;;
71715;SDS011;59568;52.128;5.434;2024-01-16T03:23:48;3.15;;;0.20;;
71715;SDS011;59568;52.128;5.434;2024-01-16T03:26:15;0.95;;;0.38;;
71715;SDS011;59568;52.128;5.434;2024-01-16T03:28:43;1.05;;;0.20;;
71715;SDS011;59568;52.128;5.434;2024-01-16T03:31:11;0.70;;;0.38;;
71715;SDS011;59568;52.128;5.434;2024-01-16T03:33:41;0.20;;;0.20;;
71715;SDS011;59568;52.128;5.434;2024-01-16T03:36:10;0.20;;;0.20;;
71715;SDS011;59568;52.128;5.434;2024-01-16T03:38:40;1.88;;;0.40;;
71715;SDS011;59568;52.128;5.434;2024-01-16T03:41:07;3.70;;;0.30;;
71715;SDS011;59568;52.128;5.434;2024-01-16T03:43:34;0.55;;;0.20;;
71715;SDS011;59568;52.128;5.434;2024-01-16T03:46:02;2.43;;;0.30;;
71715;SDS011;59568;52.128;5.434;2024-01-16T03:48:29;0.88;;;0.30;;
71715;SDS011;59568;52.128;5.434;2024-01-16T03:50:56;0.40;;;0.20;;
71715;SDS011;59568;52.128;5.434;2024-01-16T03:53:23;0.85;;;0.32;;
71715;SDS011;59568;52.128;5.434;2024-01-16T03:55:50;0.65;;;0.28;;
71715;SDS011;59568;52.128;5.434;2024-01-16T03:58:17;0.47;;;0.20;;
71715;SDS011;59568;52.128;5.434;2024-01-16T04:00:44;0.50;;;0.20;;
71715;SDS011;59568;52.128;5.434;2024-01-16T04:03:12;0.68;;;0.50;;
71715;SDS011;59568;52.128;5.434;2024-01-16T04:05:39;0.70;;;0.40;;
71715;SDS011;59568;52.128;5.434;2024-01-16T04:08:07;2.20;;;0.20;;
71715;SDS011;59568;52.128;5.434;2024-01-16T04:10:34;0.30;;;0.20;;
71715;SDS011;59568;52.128;5.434;2024-01-16T04:13:01;1.38;;;0.30;;
71715;SDS011;59568;52.128;5.434;2024-01-16T04:15:29;0.40;;;0.22;;
71715;SDS011;59568;52.128;5.434;2024-01-16T04:17:56;0.60;;;0.30;;
71715;SDS011;59568;52.128;5.434;2024-01-16T04:20:23;0.10;;;0.10;;
71715;SDS011;59568;52.128;5.434;2024-01-16T04:22:51;0.40;;;0.20;;
71715;SDS011;59568;52.128;5.434;2024-01-16T04:25:17;0.40;;;0.20;;
71715;SDS011;59568;52.128;5.434;2024-01-16T04:27:44;0.63;;;0.30;;
71715;SDS011;59568;52.128;5.434;2024-01-16T04:30:11;0.47;;;0.20;;
71715;SDS011;59568;52.128;5.434;2024-01-16T04:32:39;1.38;;;0.20;;
71715;SDS011;59568;52.128;5.434;2024-01-16T04:35:06;1.43;;;0.20;;
71715;SDS011;59568;52.128;5.434;2024-01-16T04:37:34;0.30;;;0.20;;
71715;SDS011;59568;52.128;5.434;2024-01-16T04:40:01;0.35;;;0.30;;
71715;SDS011;59568;52.128;5.434;2024-01-16T04:42:28;0.47;;;0.30;;
71715;SDS011;59568;52.128;5.434;2024-01-16T04:44:55;0.47;;;0.28;;
71715;SDS011;59568;52.128;5.434;2024-01-16T04:47:22;0.50;;;0.30;;
71715;SDS011;59568;52.128;5.434;2024-01-16T04:49:49;1.17;;;0.38;;
71715;SDS011;59568;52.128;5.434;2024-01-16T04:52:16;0.35;;;0.20;;
71715;SDS011;59568;52.128;5.434;2024-01-16T04:54:43;1.50;;;0.20;;
71715;SDS011;59568;52.128;5.434;2024-01-16T04:57:12;1.20;;;0.20;;
71715;SDS011;59568;52.128;5.434;2024-01-16T04:59:39;0.40;;;0.20;;
71715;SDS011;59568;52.128;5.434;2024-01-16T05:02:06;0.40;;;0.30;;
71715;SDS011;59568;52.128;5.434;2024-01-16T05:04:33;2.92;;;0.40;;
71715;SDS011;59568;52.128;5.434;2024-01-16T05:07:04;0.20;;;0.17;;
71715;SDS011;59568;52.128;5.434;2024-01-16T05:09:31;1.27;;;0.38;;
71715;SDS011;59568;52.128;5.434;2024-01-16T05:11:58;0.70;;;0.20;;
71715;SDS011;59568;52.128;5.434;2024-01-16T05:14:25;1.52;;;0.45;;
71715;SDS011;59568;52.128;5.434;2024-01-16T05:16:52;2.15;;;0.47;;
71715;SDS011;59568;52.128;5.434;2024-01-16T05:19:19;4.32;;;0.40;;
71715;SDS011;59568;52.128;5.434;2024-01-16T05:21:46;0.63;;;0.50;;
71715;SDS011;59568;52.128;5.434;2024-01-16T05:24:13;1.60;;;0.53;;
71715;SDS011;59568;52.128;5.434;2024-01-16T05:26:40;3.10;;;0.35;;
71715;SDS011;59568;52.128;5.434;2024-01-16T05:29:07;1.65;;;0.35;;
71715;SDS011;59568;52.128;5.434;2024-01-16T05:31:39;1.60;;;0.50;;
71715;SDS011;59568;52.128;5.434;2024-01-16T05:34:08;1.02;;;0.40;;
71715;SDS011;59568;52.128;5.434;2024-01-16T05:36:36;1.80;;;0.60;;
71715;SDS011;59568;52.128;5.434;2024-01-16T05:39:03;1.52;;;0.50;;
71715;SDS011;59568;52.128;5.434;2024-01-16T05:41:33;0.95;;;0.35;;
71715;SDS011;59568;52.128;5.434;2024-01-16T05:44:01;1.15;;;0.60;;
71715;SDS011;59568;52.128;5.434;2024-01-16T05:46:31;2.15;;;0.75;;
71715;SDS011;59568;52.128;5.434;2024-01-16T05:48:59;1.10;;;0.60;;
71715;SDS011;59568;52.128;5.434;2024-01-16T05:51:27;2.92;;;0.40;;
71715;SDS011;59568;52.128;5.434;2024-01-16T05:53:55;1.27;;;0.52;;
71715;SDS011;59568;52.128;5.434;2024-01-16T05:56:23;0.70;;;0.30;;
71715;SDS011;59568;52.128;5.434;2024-01-16T05:58:50;2.67;;;0.50;;
71715;SDS011;59568;52.128;5.434;2024-01-16T06:01:18;1.43;;;0.43;;
71715;SDS011;59568;52.128;5.434;2024-01-16T06:03:46;0.88;;;0.50;;
71715;SDS011;59568;52.128;5.434;2024-01-16T06:06:16;1.95;;;0.40;;
71715;SDS011;59568;52.128;5.434;2024-01-16T06:08:43;0.80;;;0.50;;
71715;SDS011;59568;52.128;5.434;2024-01-16T06:11:10;2.15;;;0.50;;
71715;SDS011;59568;52.128;5.434;2024-01-16T06:13:40;0.90;;;0.60;;
71715;SDS011;59568;52.128;5.434;2024-01-16T06:16:07;1.42;;;0.50;;
71715;SDS011;59568;52.128;5.434;2024-01-16T06:18:37;1.70;;;0.60;;
71715;SDS011;59568;52.128;5.434;2024-01-16T06:21:04;1.88;;;1.27;;
71715;SDS011;59568;52.128;5.434;2024-01-16T06:23:32;1.83;;;1.13;;
71715;SDS011;59568;52.128;5.434;2024-01-16T06:25:59;1.27;;;0.60;;
71715;SDS011;59568;52.128;5.434;2024-01-16T06:28:27;1.15;;;0.55;;
71715;SDS011;59568;52.128;5.434;2024-01-16T06:30:54;0.90;;;0.70;;
71715;SDS011;59568;52.128;5.434;2024-01-16T06:33:21;1.48;;;0.57;;
71715;SDS011;59568;52.128;5.434;2024-01-16T06:35:48;3.22;;;0.50;;
71715;SDS011;59568;52.128;5.434;2024-01-16T06:38:19;5.37;;;0.60;;
71715;SDS011;59568;52.128;5.434;2024-01-16T06:40:47;1.27;;;0.50;;
71715;SDS011;59568;52.128;5.434;2024-01-16T06:43:14;2.15;;;0.75;;
71715;SDS011;59568;52.128;5.434;2024-01-16T06:45:42;1.40;;;0.40;;
71715;SDS011;59568;52.128;5.434;2024-01-16T06:48:10;2.13;;;0.95;;
71715;SDS011;59568;52.128;5.434;2024-01-16T06:50:38;1.80;;;0.40;;
71715;SDS011;59568;52.128;5.434;2024-01-16T06:53:05;4.28;;;0.55;;
71715;SDS011;59568;52.128;5.434;2024-01-16T06:55:32;1.67;;;0.70;;
71715;SDS011;59568;52.128;5.434;2024-01-16T06:57:59;1.60;;;0.65;;
71715;SDS011;59568;52.128;5.434;2024-01-16T07:00:26;1.30;;;0.77;;
71715;SDS011;59568;52.128;5.434;2024-01-16T07:02:54;0.87;;;0.40;;
71715;SDS011;59568;52.128;5.434;2024-01-16T07:05:21;0.95;;;0.60;;
71715;SDS011;59568;52.128;5.434;2024-01-16T07:07:48;1.15;;;0.45;;
71715;SDS011;59568;52.128;5.434;2024-01-16T07:10:15;2.70;;;0.68;;
71715;SDS011;59568;52.128;5.434;2024-01-16T07:12:47;1.73;;;0.50;;
71715;SDS011;59568;52.128;5.434;2024-01-16T07:15:15;1.67;;;0.70;;
71715;SDS011;59568;52.128;5.434;2024-01-16T07:17:42;5.80;;;1.00;;
71715;SDS011;59568;52.128;5.434;2024-01-16T07:20:10;2.45;;;0.95;;
71715;SDS011;59568;52.128;5.434;2024-01-16T07:22:37;7.03;;;1.02;;
71715;SDS011;59568;52.128;5.434;2024-01-16T07:25:06;1.70;;;1.00;;
71715;SDS011;59568;52.128;5.434;2024-01-16T07:27:34;2.77;;;1.50;;
71715;SDS011;59568;52.128;5.434;2024-01-16T07:30:03;4.32;;;1.42;;
71715;SDS011;59568;52.128;5.434;2024-01-16T07:32:31;3.38;;;1.67;;
71715;SDS011;59568;52.128;5.434;2024-01-16T07:34:59;4.60;;;1.83;;
71715;SDS011;59568;52.128;5.434;2024-01-16T07:37:26;3.17;;;1.73;;
71715;SDS011;59568;52.128;5.434;2024-01-16T07:39:53;3.53;;;1.57;;
71715;SDS011;59568;52.128;5.434;2024-01-16T07:42:20;6.47;;;1.98;;
71715;SDS011;59568;52.128;5.434;2024-01-16T07:44:47;3.83;;;2.03;;
71715;SDS011;59568;52.128;5.434;2024-01-16T07:47:14;2.90;;;1.77;;
71715;SDS011;59568;52.128;5.434;2024-01-16T07:49:41;5.45;;;1.75;;
71715;SDS011;59568;52.128;5.434;2024-01-16T07:52:08;5.50;;;1.60;;
71715;SDS011;59568;52.128;5.434;2024-01-16T07:54:35;2.80;;;1.85;;
71715;SDS011;59568;52.128;5.434;2024-01-16T07:57:02;5.20;;;2.13;;
71715;SDS011;59568;52.128;5.434;2024-01-16T07:59:30;4.82;;;1.67;;
71715;SDS011;59568;52.128;5.434;2024-01-16T08:01:57;3.22;;;1.55;;
71715;SDS011;59568;52.128;5.434;2024-01-16T08:04:24;3.23;;;1.90;;
71715;SDS011;59568;52.128;5.434;2024-01-16T08:06:52;4.72;;;1.75;;
71715;SDS011;59568;52.128;5.434;2024-01-16T08:09:19;6.35;;;1.83;;
71715;SDS011;59568;52.128;5.434;2024-01-16T08:11:47;5.45;;;1.58;;
71715;SDS011;59568;52.128;5.434;2024-01-16T08:14:14;4.82;;;1.85;;
71715;SDS011;59568;52.128;5.434;2024-01-16T08:16:41;4.30;;;1.73;;
71715;SDS011;59568;52.128;5.434;2024-01-16T08:19:08;2.47;;;1.75;;
71715;SDS011;59568;52.128;5.434;2024-01-16T08:21:35;4.47;;;1.58;;
71715;SDS011;59568;52.128;5.434;2024-01-16T08:24:02;4.25;;;2.35;;
71715;SDS011;59568;52.128;5.434;2024-01-16T08:26:29;3.65;;;2.20;;
71715;SDS011;59568;52.128;5.434;2024-01-16T08:28:57;4.07;;;2.13;;
71715;SDS011;59568;52.128;5.434;2024-01-16T08:31:24;3.17;;;1.90;;
71715;SDS011;59568;52.128;5.434;2024-01-16T08:33:51;4.05;;;2.45;;
71715;SDS011;59568;52.128;5.434;2024-01-16T08:36:22;2.95;;;1.80;;
71715;SDS011;59568;52.128;5.434;2024-01-16T08:38:49;4.22;;;2.30;;
71715;SDS011;59568;52.128;5.434;2024-01-16T08:41:17;5.47;;;2.27;;
71715;SDS011;59568;52.128;5.434;2024-01-16T08:43:44;2.70;;;1.63;;
71715;SDS011;59568;52.128;5.434;2024-01-16T08:46:11;5.60;;;1.65;;
71715;SDS011;59568;52.128;5.434;2024-01-16T08:48:38;8.10;;;1.60;;
71715;SDS011;59568;52.128;5.434;2024-01-16T08:51:07;4.90;;;1.67;;
71715;SDS011;59568;52.128;5.434;2024-01-16T08:53:38;2.73;;;1.33;;
71715;SDS011;59568;52.128;5.434;2024-01-16T08:56:05;2.20;;;1.23;;
71715;SDS011;59568;52.128;5.434;2024-01-16T08:58:35;3.95;;;1.73;;
71715;SDS011;59568;52.128;5.434;2024-01-16T09:01:04;2.85;;;1.35;;
71715;SDS011;59568;52.128;5.434;2024-01-16T09:03:32;4.47;;;1.58;;
71715;SDS011;59568;52.128;5.434;2024-01-16T09:06:00;5.73;;;1.53;;
71715;SDS011;59568;52.128;5.434;2024-01-16T09:08:29;3.70;;;1.70;;
71715;SDS011;59568;52.128;5.434;2024-01-16T09:10:56;3.30;;;1.25;;
71715;SDS011;59568;52.128;5.434;2024-01-16T09:13:23;3.40;;;1.17;;
71715;SDS011;59568;52.128;5.434;2024-01-16T09:15:50;3.92;;;1.17;;
71715;SDS011;59568;52.128;5.434;2024-01-16T09:18:17;10.07;;;1.50;;
71715;SDS011;59568;52.128;5.434;2024-01-16T09:20:44;2.28;;;0.93;;
71715;SDS011;59568;52.128;5.434;2024-01-16T09:23:12;4.10;;;1.63;;
71715;SDS011;59568;52.128;5.434;2024-01-16T09:25:39;4.15;;;0.90;;
71715;SDS011;59568;52.128;5.434;2024-01-16T09:28:06;2.95;;;1.27;;
71715;SDS011;59568;52.128;5.434;2024-01-16T09:30:33;6.33;;;1.30;;
71715;SDS011;59568;52.128;5.434;2024-01-16T09:33:00;2.65;;;1.17;;
71715;SDS011;59568;52.128;5.434;2024-01-16T09:35:28;2.80;;;0.90;;
71715;SDS011;59568;52.128;5.434;2024-01-16T09:37:55;2.90;;;0.90;;
71715;SDS011;59568;52.128;5.434;2024-01-16T09:40:22;3.78;;;1.75;;
71715;SDS011;59568;52.128;5.434;2024-01-16T09:42:49;4.50;;;1.20;;
71715;SDS011;59568;52.128;5.434;2024-01-16T09:45:19;2.10;;;0.77;;
71715;SDS011;59568;52.128;5.434;2024-01-16T09:47:49;6.80;;;1.58;;
71715;SDS011;59568;52.128;5.434;2024-01-16T09:50:18;2.72;;;0.73;;
71715;SDS011;59568;52.128;5.434;2024-01-16T09:52:46;3.55;;;1.27;;
71715;SDS011;59568;52.128;5.434;2024-01-16T09:55:14;1.73;;;0.83;;
71715;SDS011;59568;52.128;5.434;2024-01-16T09:57:41;3.53;;;1.20;;
71715;SDS011;59568;52.128;5.434;2024-01-16T10:00:12;2.58;;;1.42;;
71715;SDS011;59568;52.128;5.434;2024-01-16T10:02:39;2.78;;;1.30;;
71715;SDS011;59568;52.128;5.434;2024-01-16T10:05:07;6.75;;;1.17;;
71715;SDS011;59568;52.128;5.434;2024-01-16T10:07:39;2.73;;;1.37;;
71715;SDS011;59568;52.128;5.434;2024-01-16T10:10:07;4.53;;;1.40;;
71715;SDS011;59568;52.128;5.434;2024-01-16T10:12:40;2.33;;;1.02;;
71715;SDS011;59568;52.128;5.434;2024-01-16T10:15:07;4.55;;;1.40;;
71715;SDS011;59568;52.128;5.434;2024-01-16T10:17:35;3.20;;;1.52;;
71715;SDS011;59568;52.128;5.434;2024-01-16T10:20:04;4.50;;;1.40;;
71715;SDS011;59568;52.128;5.434;2024-01-16T10:22:32;2.20;;;1.45;;
71715;SDS011;59568;52.128;5.434;2024-01-16T10:25:09;7.68;;;1.63;;
71715;SDS011;59568;52.128;5.434;2024-01-16T10:27:39;1.98;;;1.30;;
71715;SDS011;59568;52.128;5.434;2024-01-16T10:30:07;7.97;;;1.35;;
71715;SDS011;59568;52.128;5.434;2024-01-16T10:32:35;3.60;;;1.67;;
71715;SDS011;59568;52.128;5.434;2024-01-16T10:35:05;1.73;;;1.20;;
71715;SDS011;59568;52.128;5.434;2024-01-16T10:40:18;5.80;;;1.83;;
71715;SDS011;59568;52.128;5.434;2024-01-16T10:42:57;3.70;;;1.50;;
71715;SDS011;59568;52.128;5.434;2024-01-16T10:45:26;7.43;;;1.50;;
71715;SDS011;59568;52.128;5.434;2024-01-16T10:50:31;5.72;;;2.05;;
71715;SDS011;59568;52.128;5.434;2024-01-16T10:52:59;4.43;;;1.52;;
71715;SDS011;59568;52.128;5.434;2024-01-16T10:55:29;3.17;;;1.17;;
71715;SDS011;59568;52.128;5.434;2024-01-16T10:57:58;4.40;;;1.27;;
71715;SDS011;59568;52.128;5.434;2024-01-16T11:00:27;5.13;;;1.33;;
71715;SDS011;59568;52.128;5.434;2024-01-16T11:03:19;3.25;;;1.45;;
71715;SDS011;59568;52.128;5.434;2024-01-16T11:05:46;6.75;;;1.55;;
71715;SDS011;59568;52.128;5.434;2024-01-16T11:08:14;5.30;;;1.30;;
71715;SDS011;59568;52.128;5.434;2024-01-16T11:10:45;2.00;;;1.10;;
71715;SDS011;59568;52.128;5.434;2024-01-16T11:13:15;3.35;;;1.10;;
71715;SDS011;59568;52.128;5.434;2024-01-16T11:15:43;3.63;;;1.30;;
71715;SDS011;59568;52.128;5.434;2024-01-16T11:18:14;2.60;;;1.00;;
71715;SDS011;59568;52.128;5.434;2024-01-16T11:20:43;7.68;;;1.35;;
71715;SDS011;59568;52.128;5.434;2024-01-16T11:23:14;8.07;;;1.10;;
71715;SDS011;59568;52.128;5.434;2024-01-16T11:25:41;3.70;;;0.90;;
71715;SDS011;59568;52.128;5.434;2024-01-16T11:30:37;4.75;;;1.08;;
71715;SDS011;59568;52.128;5.434;2024-01-16T11:33:04;5.05;;;0.98;;
71715;SDS011;59568;52.128;5.434;2024-01-16T11:35:32;2.70;;;1.10;;
71715;SDS011;59568;52.128;5.434;2024-01-16T11:38:14;4.45;;;1.35;;
71715;SDS011;59568;52.128;5.434;2024-01-16T11:40:43;5.95;;;1.40;;
71715;SDS011;59568;52.128;5.434;2024-01-16T11:46:03;5.40;;;1.10;;
71715;SDS011;59568;52.128;5.434;2024-01-16T11:48:32;1.60;;;0.70;;
71715;SDS011;59568;52.128;5.434;2024-01-16T11:50:59;2.90;;;1.00;;
71715;SDS011;59568;52.128;5.434;2024-01-16T12:01:29;4.17;;;1.40;;
71715;SDS011;59568;52.128;5.434;2024-01-16T12:04:06;1.90;;;0.98;;
71715;SDS011;59568;52.128;5.434;2024-01-16T12:06:34;1.92;;;0.93;;
71715;SDS011;59568;52.128;5.434;2024-01-16T12:09:16;3.10;;;1.00;;
71715;SDS011;59568;52.128;5.434;2024-01-16T12:11:55;2.17;;;0.90;;
71715;SDS011;59568;52.128;5.434;2024-01-16T12:14:28;5.73;;;1.60;;
71715;SDS011;59568;52.128;5.434;2024-01-16T12:17:14;2.20;;;0.80;;
71715;SDS011;59568;52.128;5.434;2024-01-16T12:19:42;7.82;;;1.33;;
71715;SDS011;59568;52.128;5.434;2024-01-16T12:22:13;3.00;;;1.42;;
71715;SDS011;59568;52.128;5.434;2024-01-16T12:24:40;3.88;;;1.35;;
71715;SDS011;59568;52.128;5.434;2024-01-16T12:27:08;3.13;;;1.20;;
71715;SDS011;59568;52.128;5.434;2024-01-16T12:29:35;4.47;;;1.08;;
71715;SDS011;59568;52.128;5.434;2024-01-16T12:32:09;2.70;;;0.85;;
71715;SDS011;59568;52.128;5.434;2024-01-16T12:34:48;6.00;;;1.50;;
71715;SDS011;59568;52.128;5.434;2024-01-16T12:37:16;2.05;;;1.10;;
71715;SDS011;59568;52.128;5.434;2024-01-16T12:39:43;3.47;;;1.03;;
71715;SDS011;59568;52.128;5.434;2024-01-16T12:42:10;2.53;;;1.42;;
71715;SDS011;59568;52.128;5.434;2024-01-16T12:44:39;4.43;;;1.50;;
71715;SDS011;59568;52.128;5.434;2024-01-16T12:47:06;5.90;;;1.60;;
71715;SDS011;59568;52.128;5.434;2024-01-16T12:49:40;4.40;;;1.88;;
71715;SDS011;59568;52.128;5.434;2024-01-16T12:52:15;8.07;;;1.87;;
71715;SDS011;59568;52.128;5.434;2024-01-16T12:54:47;6.90;;;1.55;;
71715;SDS011;59568;52.128;5.434;2024-01-16T12:57:19;8.45;;;2.08;;
71715;SDS011;59568;52.128;5.434;2024-01-16T12:59:47;4.00;;;1.58;;
71715;SDS011;59568;52.128;5.434;2024-01-16T13:02:19;5.13;;;1.65;;
71715;SDS011;59568;52.128;5.434;2024-01-16T13:04:55;2.73;;;1.43;;
71715;SDS011;59568;52.128;5.434;2024-01-16T13:07:24;6.60;;;1.75;;
71715;SDS011;59568;52.128;5.434;2024-01-16T13:12:52;2.50;;;1.50;;
71715;SDS011;59568;52.128;5.434;2024-01-16T13:15:19;5.88;;;1.83;;
71715;SDS011;59568;52.128;5.434;2024-01-16T13:17:47;5.07;;;1.80;;
71715;SDS011;59568;52.128;5.434;2024-01-16T13:20:14;3.30;;;1.67;;
71715;SDS011;59568;52.128;5.434;2024-01-16T13:22:42;3.85;;;1.40;;
71715;SDS011;59568;52.128;5.434;2024-01-16T13:25:14;3.63;;;1.70;;
71715;SDS011;59568;52.128;5.434;2024-01-16T13:27:41;8.60;;;2.05;;
71715;SDS011;59568;52.128;5.434;2024-01-16T13:30:08;4.50;;;1.90;;
71715;SDS011;59568;52.128;5.434;2024-01-16T13:32:36;3.83;;;1.52;;
71715;SDS011;59568;52.128;5.434;2024-01-16T13:35:04;4.25;;;1.90;;
71715;SDS011;59568;52.128;5.434;2024-01-16T13:37:35;4.63;;;1.75;;
71715;SDS011;59568;52.128;5.434;2024-01-16T13:40:08;5.05;;;1.40;;
71715;SDS011;59568;52.128;5.434;2024-01-16T13:42:42;3.40;;;1.47;;
71715;SDS011;59568;52.128;5.434;2024-01-16T13:45:09;1.88;;;1.25;;
71715;SDS011;59568;52.128;5.434;2024-01-16T13:47:40;4.32;;;1.65;;
71715;SDS011;59568;52.128;5.434;2024-01-16T13:50:08;9.15;;;1.83;;
71715;SDS011;59568;52.128;5.434;2024-01-16T13:52:35;2.65;;;1.40;;
71715;SDS011;59568;52.128;5.434;2024-01-16T13:55:03;4.27;;;1.80;;
71715;SDS011;59568;52.128;5.434;2024-01-16T13:57:32;5.65;;;1.67;;
71715;SDS011;59568;52.128;5.434;2024-01-16T14:00:03;3.85;;;1.63;;
71715;SDS011;59568;52.128;5.434;2024-01-16T14:02:33;5.53;;;2.05;;
71715;SDS011;59568;52.128;5.434;2024-01-16T14:05:11;4.95;;;1.33;;
71715;SDS011;59568;52.128;5.434;2024-01-16T14:07:42;3.17;;;1.63;;
71715;SDS011;59568;52.128;5.434;2024-01-16T14:10:09;5.15;;;0.98;;
71715;SDS011;59568;52.128;5.434;2024-01-16T14:12:39;4.00;;;1.58;;
71715;SDS011;59568;52.128;5.434;2024-01-16T14:15:09;3.50;;;1.42;;
71715;SDS011;59568;52.128;5.434;2024-01-16T14:17:50;4.63;;;1.63;;
71715;SDS011;59568;52.128;5.434;2024-01-16T14:20:19;1.73;;;0.90;;
71715;SDS011;59568;52.128;5.434;2024-01-16T14:22:53;2.75;;;1.25;;
71715;SDS011;59568;52.128;5.434;2024-01-16T14:25:21;4.55;;;1.50;;
71715;SDS011;59568;52.128;5.434;2024-01-16T14:27:59;1.88;;;1.13;;
71715;SDS011;59568;52.128;5.434;2024-01-16T14:30:33;4.28;;;0.95;;
71715;SDS011;59568;52.128;5.434;2024-01-16T14:33:02;4.90;;;1.40;;
71715;SDS011;59568;52.128;5.434;2024-01-16T14:35:29;3.72;;;1.40;;
71715;SDS011;59568;52.128;5.434;2024-01-16T14:37:56;3.33;;;1.13;;
71715;SDS011;59568;52.128;5.434;2024-01-16T14:40:23;3.60;;;1.60;;
71715;SDS011;59568;52.128;5.434;2024-01-16T14:42:54;3.78;;;1.80;;
71715;SDS011;59568;52.128;5.434;2024-01-16T14:45:23;2.47;;;1.43;;
71715;SDS011;59568;52.128;5.434;2024-01-16T14:47:51;2.95;;;1.48;;
71715;SDS011;59568;52.128;5.434;2024-01-16T14:50:20;5.45;;;1.88;;
71715;SDS011;59568;52.128;5.434;2024-01-16T14:52:48;2.50;;;1.33;;
71715;SDS011;59568;52.128;5.434;2024-01-16T14:55:18;3.80;;;1.20;;
71715;SDS011;59568;52.128;5.434;2024-01-16T14:57:47;3.17;;;1.87;;
71715;SDS011;59568;52.128;5.434;2024-01-16T15:00:19;5.32;;;1.52;;
71715;SDS011;59568;52.128;5.434;2024-01-16T15:02:46;3.20;;;1.67;;
71715;SDS011;59568;52.128;5.434;2024-01-16T15:05:16;3.50;;;1.40;;
71715;SDS011;59568;52.128;5.434;2024-01-16T15:07:46;2.88;;;1.95;;
71715;SDS011;59568;52.128;5.434;2024-01-16T15:10:14;6.93;;;2.10;;
71715;SDS011;59568;52.128;5.434;2024-01-16T15:12:43;2.65;;;1.30;;
71715;SDS011;59568;52.128;5.434;2024-01-16T15:15:12;7.88;;;1.42;;
71715;SDS011;59568;52.128;5.434;2024-01-16T15:17:41;2.22;;;1.40;;